Time;durP1;ratioP1;P1;durP2;ratioP2;P2;SDS_P1;SDS_P2;PMS_P1;PMS_P2;Temp;Humidity;BMP_temperature;BMP_pressure;BME280_temperature;BME280_humidity;BME280_pressure;Samples;Min_cycle;Max_cycle;Signal;HPM_P1;HPM_P2
2022/01/23 00:01:35;;;;;;;5.03;4.63;;;8.80;99.90;;;;;;4927523;29;20210;-63
2022/01/23 00:04:06;;;;;;;5.35;4.95;;;8.80;99.90;;;;;;4927164;29;20210;-64
2022/01/23 00:06:37;;;;;;;5.40;4.90;;;8.80;99.90;;;;;;4927040;29;20202;-63
2022/01/23 00:09:10;;;;;;;5.07;4.68;;;8.80;99.90;;;;;;4924886;29;20254;-63
2022/01/23 00:11:47;;;;;;;5.32;4.82;;;8.70;99.90;;;;;;4927655;29;20558;-63
2022/01/23 00:17:20;;;;;;;5.80;5.30;;;8.70;99.90;;;;;;4926892;29;20230;-63
2022/01/23 00:19:53;;;;;;;6.70;6.10;;;8.70;99.90;;;;;;4923257;29;20209;-63
2022/01/23 00:22:31;;;;;;;6.63;6.05;;;8.70;99.90;;;;;;4921844;29;20216;-63
2022/01/23 00:30:41;;;;;;;5.97;5.38;;;8.40;99.90;;;;;;4921936;29;20575;-63
2022/01/23 00:33:13;;;;;;;6.00;5.47;;;8.40;99.90;;;;;;4927065;29;20213;-63
2022/01/23 00:35:47;;;;;;;7.63;7.03;;;8.30;99.90;;;;;;4926269;29;20217;-63
2022/01/23 00:38:18;;;;;;;6.35;5.75;;;8.30;99.90;;;;;;4919145;29;20238;-63
2022/01/23 00:40:52;;;;;;;5.85;5.30;;;8.20;99.90;;;;;;4922838;29;20218;-63
2022/01/23 00:43:29;;;;;;;8.27;7.57;;;8.20;99.90;;;;;;4912638;29;20289;-63
2022/01/23 00:46:11;;;;;;;10.43;9.55;;;8.10;99.90;;;;;;4924523;29;20198;-63
2022/01/23 00:48:49;;;;;;;6.65;6.00;;;8.20;99.90;;;;;;4920905;29;20186;-63
2022/01/23 00:51:20;;;;;;;7.93;7.13;;;8.20;99.90;;;;;;4919802;29;20274;-63
2022/01/23 00:53:56;;;;;;;9.68;8.88;;;8.00;99.90;;;;;;4911474;29;20207;-62
2022/01/23 00:56:29;;;;;;;9.00;8.15;;;8.00;99.90;;;;;;4914980;29;20225;-62
2022/01/23 00:59:00;;;;;;;7.90;7.13;;;8.00;99.90;;;;;;4916445;29;20242;-62
2022/01/23 01:01:31;;;;;;;8.60;7.80;;;7.90;99.90;;;;;;4917842;29;20212;-63
2022/01/23 01:04:02;;;;;;;9.70;8.80;;;7.80;99.90;;;;;;4921522;29;20263;-63
2022/01/23 01:06:34;;;;;;;8.63;7.90;;;7.80;99.90;;;;;;4917627;29;20203;-63
2022/01/23 01:09:07;;;;;;;9.07;8.10;;;7.80;99.90;;;;;;4918876;29;20286;-64
2022/01/23 01:17:23;;;;;;;8.00;7.30;;;7.70;99.90;;;;;;4921752;29;20231;-63
2022/01/23 01:31:27;;;;;;;8.13;7.43;;;7.10;99.90;;;;;;4842672;29;20215;-61
2022/01/23 01:34:05;;;;;;;8.48;7.75;;;7.00;99.90;;;;;;4847148;29;20197;-61
2022/01/23 01:36:45;;;;;;;9.50;8.60;;;6.90;99.90;;;;;;4856081;29;20207;-62
2022/01/23 01:39:17;;;;;;;8.25;7.55;;;6.90;99.90;;;;;;4844880;29;20238;-62
2022/01/23 01:41:49;;;;;;;8.77;7.97;;;6.80;99.90;;;;;;4842260;29;20210;-62
2022/01/23 01:44:22;;;;;;;9.35;8.55;;;6.80;99.90;;;;;;4845415;29;20321;-61
2022/01/23 01:46:53;;;;;;;9.32;8.32;;;6.80;99.90;;;;;;4837627;29;20194;-61
2022/01/23 01:49:28;;;;;;;9.65;8.65;;;6.70;99.90;;;;;;4833026;29;20238;-61
2022/01/23 01:52:01;;;;;;;9.73;8.73;;;6.60;99.90;;;;;;4843922;29;20210;-61
2022/01/23 01:54:33;;;;;;;10.45;9.50;;;6.50;99.90;;;;;;4844486;29;20216;-63
2022/01/23 01:57:07;;;;;;;9.73;8.82;;;6.50;99.90;;;;;;4844411;29;20233;-63
2022/01/23 02:00:11;;;;;;;10.30;9.30;;;6.40;99.90;;;;;;4846057;29;20204;-63
2022/01/23 02:02:55;;;;;;;13.35;10.60;;;6.30;99.90;;;;;;4881629;29;20230;-62
2022/01/23 02:08:23;;;;;;;11.85;10.65;;;6.20;99.90;;;;;;4912185;29;20248;-63
2022/01/23 02:11:07;;;;;;;12.48;11.27;;;6.10;99.90;;;;;;4923269;29;20209;-63
2022/01/23 02:13:44;;;;;;;14.30;10.95;;;6.10;99.90;;;;;;4922849;29;20571;-62
2022/01/23 02:17:01;;;;;;;12.75;11.55;;;6.00;99.90;;;;;;4923874;29;20202;-63
2022/01/23 02:22:38;;;;;;;13.45;12.25;;;6.00;99.90;;;;;;4921943;29;20211;-63
2022/01/23 02:25:39;;;;;;;13.38;12.07;;;6.00;99.90;;;;;;4925151;29;20305;-64
2022/01/23 02:51:14;;;;;;;16.75;15.15;;;5.60;99.90;;;;;;4916612;29;20333;-63
2022/01/23 02:54:07;;;;;;;17.23;15.50;;;5.60;99.90;;;;;;4924069;29;20233;-65
2022/01/23 02:56:55;;;;;;;19.88;16.50;;;5.60;99.90;;;;;;4927313;29;20211;-63
2022/01/23 02:59:29;;;;;;;18.48;15.75;;;5.50;99.90;;;;;;4926266;29;20210;-67
2022/01/23 03:02:09;;;;;;;18.67;16.70;;;5.50;99.90;;;;;;4924141;29;20309;-64
2022/01/23 03:04:49;;;;;;;17.73;15.82;;;5.40;99.90;;;;;;4925377;29;20207;-65
2022/01/23 03:07:48;;;;;;;17.00;15.20;;;5.40;99.90;;;;;;4916748;29;20211;-65
2022/01/23 03:10:23;;;;;;;18.35;16.45;;;5.30;99.90;;;;;;4918630;29;20723;-67
2022/01/23 03:27:26;;;;;;;26.35;23.55;;;5.10;99.90;;;;;;4915928;29;20224;-64
2022/01/23 03:30:16;;;;;;;24.05;21.65;;;5.10;99.90;;;;;;4913582;29;20521;-63
2022/01/23 03:32:51;;;;;;;23.10;20.77;;;5.00;99.90;;;;;;4927162;29;20187;-62
2022/01/23 03:35:23;;;;;;;27.25;24.48;;;5.00;99.90;;;;;;4924030;29;20269;-63
2022/01/23 03:37:57;;;;;;;26.73;24.02;;;4.90;99.90;;;;;;4923910;29;20697;-63
2022/01/23 03:40:29;;;;;;;26.75;23.90;;;4.90;99.90;;;;;;4919421;29;20199;-63
2022/01/23 03:43:10;;;;;;;27.58;24.63;;;4.90;99.90;;;;;;4925148;29;20305;-64
2022/01/23 03:45:59;;;;;;;26.75;23.92;;;4.90;99.90;;;;;;4919443;29;20281;-63
2022/01/23 03:51:18;;;;;;;29.17;23.88;;;4.90;99.90;;;;;;4926592;29;20210;-63
2022/01/23 03:53:49;;;;;;;27.80;24.00;;;4.90;99.90;;;;;;4924708;29;20550;-63
2022/01/23 03:56:22;;;;;;;27.80;25.00;;;4.90;99.90;;;;;;4924970;29;20343;-63
2022/01/23 03:58:53;;;;;;;28.27;24.63;;;4.80;99.90;;;;;;4919551;29;20564;-63
2022/01/23 04:01:26;;;;;;;27.98;24.98;;;4.80;99.90;;;;;;4918111;29;20238;-63
2022/01/23 04:04:01;;;;;;;29.42;26.02;;;4.80;99.90;;;;;;4924016;29;20191;-68
2022/01/23 04:06:33;;;;;;;44.47;29.85;;;4.70;99.90;;;;;;4923450;29;20629;-66
2022/01/23 04:09:04;;;;;;;31.52;26.60;;;4.70;99.90;;;;;;4923865;29;20215;-64
2022/01/23 04:11:35;;;;;;;33.42;29.88;;;4.70;99.90;;;;;;4926027;29;20293;-64
2022/01/23 04:14:11;;;;;;;40.15;32.60;;;4.80;99.90;;;;;;4909892;29;20211;-64
2022/01/23 04:17:11;;;;;;;34.15;30.15;;;4.60;99.90;;;;;;4913606;29;21684;-65
2022/01/23 04:19:56;;;;;;;32.55;29.10;;;4.60;99.90;;;;;;4921358;29;20341;-63
2022/01/23 04:33:59;;;;;;;30.40;27.40;;;4.40;99.90;;;;;;4919812;29;20234;-63
2022/01/23 05:01:59;;;;;;;30.00;26.88;;;4.30;99.90;;;;;;4922288;29;20216;-63
2022/01/23 05:04:32;;;;;;;29.92;26.75;;;4.30;99.90;;;;;;4924406;29;20553;-63
2022/01/23 05:07:08;;;;;;;30.27;26.35;;;4.20;99.90;;;;;;4922755;29;20298;-66
2022/01/23 05:09:40;;;;;;;27.70;24.50;;;4.10;99.90;;;;;;4918206;29;20213;-66
2022/01/23 05:12:14;;;;;;;29.15;26.15;;;4.10;99.90;;;;;;4922616;29;20588;-65
2022/01/23 05:14:46;;;;;;;30.33;27.23;;;4.10;99.90;;;;;;4920995;29;20298;-65
2022/01/23 05:17:19;;;;;;;29.90;26.73;;;4.10;99.90;;;;;;4913994;29;20215;-63
2022/01/23 05:19:50;;;;;;;27.45;24.42;;;4.20;99.90;;;;;;4917140;29;20226;-63
2022/01/23 05:22:32;;;;;;;26.38;23.85;;;4.10;99.90;;;;;;4915065;29;20283;-64
2022/01/23 05:25:13;;;;;;;25.85;22.55;;;4.10;99.90;;;;;;4912961;29;20208;-64
2022/01/23 05:27:46;;;;;;;26.95;23.85;;;4.10;99.90;;;;;;4919621;29;20213;-64
2022/01/23 05:30:17;;;;;;;27.98;24.33;;;4.20;99.90;;;;;;4918044;29;20301;-64
2022/01/23 05:32:48;;;;;;;28.35;25.35;;;4.20;99.90;;;;;;4916623;29;20234;-64
2022/01/23 05:35:22;;;;;;;30.77;25.38;;;4.20;99.90;;;;;;4916285;29;20201;-64
2022/01/23 05:37:55;;;;;;;25.75;23.05;;;4.30;99.90;;;;;;4919169;29;20203;-64
2022/01/23 05:40:28;;;;;;;27.35;24.40;;;4.20;99.90;;;;;;4921401;29;20236;-64
2022/01/23 05:42:59;;;;;;;27.20;24.48;;;4.20;99.90;;;;;;4914539;29;20233;-64
2022/01/23 05:45:30;;;;;;;31.20;26.35;;;4.20;99.90;;;;;;4920592;29;20730;-64
2022/01/23 05:48:01;;;;;;;25.55;22.85;;;4.20;99.90;;;;;;4914385;29;20221;-64
2022/01/23 05:50:33;;;;;;;25.38;22.80;;;4.20;99.90;;;;;;4918159;29;20317;-62
2022/01/23 05:53:08;;;;;;;25.33;21.02;;;4.20;99.90;;;;;;4925592;29;20258;-62
2022/01/23 05:55:41;;;;;;;24.35;21.75;;;4.30;99.90;;;;;;4918763;29;20295;-63
2022/01/23 05:58:12;;;;;;;21.85;19.65;;;4.20;99.90;;;;;;4921607;29;20313;-64
2022/01/23 06:00:43;;;;;;;22.60;19.83;;;4.20;99.90;;;;;;4924067;29;20226;-63
2022/01/23 06:03:14;;;;;;;20.73;18.38;;;4.20;99.90;;;;;;4916246;29;20235;-63
2022/01/23 06:06:04;;;;;;;20.70;18.50;;;4.30;99.90;;;;;;4922597;29;20284;-64
2022/01/23 06:08:39;;;;;;;19.80;17.63;;;4.40;99.90;;;;;;4925137;29;20328;-64
2022/01/23 06:11:15;;;;;;;18.75;16.55;;;4.40;99.90;;;;;;4925765;29;20278;-62
2022/01/23 06:13:47;;;;;;;21.02;17.35;;;4.40;99.90;;;;;;4921995;29;20202;-62
2022/01/23 06:16:19;;;;;;;16.42;14.38;;;4.30;99.90;;;;;;4924519;29;20333;-64
2022/01/23 06:18:51;;;;;;;16.90;14.88;;;4.30;99.90;;;;;;4916868;29;20657;-64
2022/01/23 06:21:24;;;;;;;17.10;14.55;;;4.30;99.90;;;;;;4919634;29;20275;-64
2022/01/23 06:24:03;;;;;;;18.13;15.57;;;4.30;99.90;;;;;;4923668;29;20199;-63
2022/01/23 06:26:44;;;;;;;16.15;14.30;;;4.30;99.90;;;;;;4919761;29;20199;-63
2022/01/23 06:29:17;;;;;;;16.15;14.45;;;4.40;99.90;;;;;;4925866;29;20207;-65
2022/01/23 06:31:49;;;;;;;14.95;13.35;;;4.40;99.90;;;;;;4927734;29;20207;-64
2022/01/23 06:34:22;;;;;;;16.35;13.32;;;4.40;99.90;;;;;;4927964;29;20214;-64
2022/01/23 06:36:58;;;;;;;15.05;13.45;;;4.40;99.90;;;;;;4926360;29;20206;-64
2022/01/23 06:39:31;;;;;;;15.70;14.00;;;4.30;99.90;;;;;;4928059;29;20855;-64
2022/01/23 06:42:02;;;;;;;16.02;14.32;;;4.30;99.90;;;;;;4920206;29;20202;-64
2022/01/23 06:44:33;;;;;;;18.67;14.20;;;4.20;99.90;;;;;;4926212;29;20214;-64
2022/01/23 06:47:04;;;;;;;13.85;12.55;;;4.20;99.90;;;;;;4926229;29;20207;-64
2022/01/23 06:49:38;;;;;;;15.30;12.77;;;4.30;99.90;;;;;;4927461;29;20238;-64
2022/01/23 06:52:09;;;;;;;15.65;13.95;;;4.20;99.90;;;;;;4923948;29;20211;-64
2022/01/23 06:54:44;;;;;;;14.70;13.18;;;4.20;99.90;;;;;;4915999;29;20231;-64
2022/01/23 06:57:16;;;;;;;15.65;13.60;;;4.20;99.90;;;;;;4922899;29;20281;-62
2022/01/23 06:59:47;;;;;;;16.75;13.95;;;4.10;99.90;;;;;;4927514;29;20234;-62
2022/01/23 07:02:18;;;;;;;16.65;14.10;;;4.00;99.90;;;;;;4926355;29;20282;-62
2022/01/23 07:04:49;;;;;;;17.05;15.25;;;4.00;99.90;;;;;;4925670;29;20274;-62
2022/01/23 07:07:20;;;;;;;15.20;13.57;;;4.00;99.90;;;;;;4926759;29;20211;-63
2022/01/23 07:09:52;;;;;;;15.45;13.90;;;4.00;99.90;;;;;;4925992;29;20198;-64
2022/01/23 07:12:23;;;;;;;17.60;15.32;;;4.00;99.90;;;;;;4924784;29;20304;-63
2022/01/23 07:14:54;;;;;;;15.90;14.32;;;4.00;99.90;;;;;;4922061;29;20205;-63
2022/01/23 07:17:25;;;;;;;17.52;15.40;;;4.00;99.90;;;;;;4926282;29;20246;-63
2022/01/23 07:19:56;;;;;;;14.98;13.15;;;4.10;99.90;;;;;;4925373;29;20346;-63
2022/01/23 07:22:27;;;;;;;16.73;14.02;;;4.20;99.90;;;;;;4926279;29;20237;-63
2022/01/23 07:25:02;;;;;;;15.52;13.52;;;4.20;99.90;;;;;;4923591;29;20202;-63
2022/01/23 07:27:37;;;;;;;14.57;13.02;;;4.10;99.90;;;;;;4927965;29;20198;-63
2022/01/23 07:30:21;;;;;;;15.32;13.70;;;4.00;99.90;;;;;;4911304;29;20236;-63
2022/01/23 07:32:52;;;;;;;16.67;13.80;;;4.00;99.90;;;;;;4923187;29;20425;-63
2022/01/23 07:35:23;;;;;;;15.75;13.48;;;4.00;99.90;;;;;;4925354;29;20643;-63
2022/01/23 07:37:54;;;;;;;15.77;13.10;;;4.00;99.90;;;;;;4926740;29;20539;-63
2022/01/23 07:40:26;;;;;;;13.95;12.52;;;3.90;99.90;;;;;;4924334;29;20281;-63
2022/01/23 07:42:57;;;;;;;14.88;13.38;;;3.80;99.90;;;;;;4919804;29;20674;-63
2022/01/23 07:45:28;;;;;;;15.13;12.45;;;3.90;99.90;;;;;;4923918;29;20211;-63
2022/01/23 07:48:00;;;;;;;13.38;12.07;;;3.90;99.90;;;;;;4922711;29;20257;-63
2022/01/23 07:50:31;;;;;;;15.60;13.57;;;4.00;99.90;;;;;;4923280;29;20241;-63
2022/01/23 07:53:02;;;;;;;13.32;11.55;;;4.10;99.90;;;;;;4919406;29;20287;-63
2022/01/23 07:55:35;;;;;;;12.40;11.10;;;4.00;99.90;;;;;;4926117;29;20198;-63
2022/01/23 07:58:15;;;;;;;15.77;12.27;;;4.00;99.90;;;;;;4918375;29;20196;-62
2022/01/23 08:00:52;;;;;;;13.00;11.65;;;3.90;99.90;;;;;;4925571;29;20231;-63
2022/01/23 08:03:24;;;;;;;12.60;10.68;;;3.90;99.90;;;;;;4922032;29;20226;-63
2022/01/23 08:05:55;;;;;;;13.50;12.13;;;3.90;99.90;;;;;;4916400;29;20640;-63
2022/01/23 08:08:26;;;;;;;14.77;12.30;;;3.90;99.90;;;;;;4918605;29;20207;-63
2022/01/23 08:10:58;;;;;;;12.95;11.75;;;3.90;99.90;;;;;;4914913;29;20202;-63
2022/01/23 08:13:30;;;;;;;13.32;11.40;;;3.90;99.90;;;;;;4927265;29;20206;-64
2022/01/23 08:16:01;;;;;;;13.55;11.85;;;3.80;99.90;;;;;;4922325;29;20217;-63
2022/01/23 08:18:32;;;;;;;13.30;11.90;;;3.90;99.90;;;;;;4925406;29;20217;-62
2022/01/23 08:21:03;;;;;;;13.65;12.25;;;3.80;99.90;;;;;;4925134;29;20234;-63
2022/01/23 08:23:38;;;;;;;12.55;11.05;;;3.70;99.90;;;;;;4916825;29;20207;-62
2022/01/23 08:26:10;;;;;;;13.30;11.85;;;3.70;99.90;;;;;;4916969;29;20274;-63
2022/01/23 08:28:45;;;;;;;13.23;11.35;;;3.70;99.90;;;;;;4926887;29;20259;-63
2022/01/23 08:31:16;;;;;;;14.38;12.85;;;3.60;99.90;;;;;;4913848;29;20202;-62
2022/01/23 08:33:47;;;;;;;14.82;12.25;;;3.60;99.90;;;;;;4920790;29;20813;-62
2022/01/23 08:36:19;;;;;;;12.88;11.52;;;3.70;99.90;;;;;;4927043;29;20210;-62
2022/01/23 08:38:58;;;;;;;15.57;12.48;;;3.60;99.90;;;;;;4925053;29;20267;-62
2022/01/23 08:44:19;;;;;;;14.82;11.93;;;3.60;99.90;;;;;;4920373;29;20205;-63
2022/01/23 08:46:51;;;;;;;14.65;12.25;;;3.70;99.90;;;;;;4923086;29;20199;-63
2022/01/23 08:49:24;;;;;;;13.13;11.73;;;3.80;99.90;;;;;;4924259;29;20231;-63
2022/01/23 08:51:57;;;;;;;13.48;12.07;;;3.80;99.90;;;;;;4925502;29;20210;-62
2022/01/23 08:54:29;;;;;;;14.80;12.27;;;3.70;99.90;;;;;;4923453;29;20301;-63
2022/01/23 08:57:02;;;;;;;16.45;13.10;;;3.70;99.90;;;;;;4924362;29;20301;-62
2022/01/23 08:59:33;;;;;;;14.80;13.20;;;3.70;99.90;;;;;;4923117;29;20233;-62
2022/01/23 09:02:04;;;;;;;15.07;12.70;;;3.70;99.90;;;;;;4919912;29;20223;-63
2022/01/23 09:04:39;;;;;;;16.20;13.18;;;3.70;99.90;;;;;;4920474;29;20670;-63
2022/01/23 09:07:09;;;;;;;13.98;11.32;;;3.60;99.90;;;;;;4919622;29;20202;-63
2022/01/23 09:09:41;;;;;;;13.63;11.52;;;3.50;99.90;;;;;;4925235;29;20203;-64
2022/01/23 09:12:29;;;;;;;15.15;12.27;;;3.50;99.90;;;;;;4924977;29;20206;-64
2022/01/23 09:15:00;;;;;;;14.93;11.40;;;3.50;99.90;;;;;;4926069;29;20217;-63
2022/01/23 09:17:31;;;;;;;14.70;12.50;;;3.50;99.90;;;;;;4922401;29;20207;-63
2022/01/23 09:20:02;;;;;;;13.23;10.68;;;3.40;99.90;;;;;;4914655;29;20213;-63
2022/01/23 09:22:33;;;;;;;14.45;12.70;;;3.40;99.90;;;;;;4920116;29;20257;-62
2022/01/23 09:25:05;;;;;;;14.05;12.57;;;3.30;99.90;;;;;;4924257;29;20225;-62
2022/01/23 09:27:39;;;;;;;12.70;11.48;;;3.20;99.90;;;;;;4911349;29;20207;-62
2022/01/23 09:30:19;;;;;;;13.18;11.77;;;3.20;99.90;;;;;;4924442;29;20262;-62
2022/01/23 09:32:51;;;;;;;14.68;10.95;;;3.10;99.90;;;;;;4921068;29;20278;-62
2022/01/23 09:35:22;;;;;;;12.90;10.95;;;3.10;99.90;;;;;;4914887;29;20219;-62
2022/01/23 09:37:53;;;;;;;15.35;11.10;;;3.10;99.90;;;;;;4912298;29;20202;-62
2022/01/23 09:40:23;;;;;;;14.57;11.88;;;3.10;99.90;;;;;;4916661;29;20558;-63
2022/01/23 09:43:03;;;;;;;11.80;10.57;;;3.00;99.90;;;;;;4925491;29;20230;-63
2022/01/23 09:45:34;;;;;;;13.80;11.23;;;3.00;99.90;;;;;;4922258;29;20213;-63
2022/01/23 09:48:08;;;;;;;12.60;11.23;;;3.00;99.90;;;;;;4924252;29;20199;-63
2022/01/23 09:50:39;;;;;;;14.07;11.00;;;2.90;99.90;;;;;;4923129;29;20241;-62
2022/01/23 09:53:10;;;;;;;14.60;11.23;;;2.80;99.90;;;;;;4925479;29;20217;-63
2022/01/23 09:55:42;;;;;;;14.02;11.60;;;2.80;99.90;;;;;;4911935;29;20211;-62
2022/01/23 09:58:15;;;;;;;12.20;10.57;;;2.80;99.90;;;;;;4920894;29;20206;-62
2022/01/23 10:00:46;;;;;;;11.32;10.23;;;2.80;99.90;;;;;;4920694;29;20207;-63
2022/01/23 10:03:19;;;;;;;12.50;11.07;;;2.80;99.90;;;;;;4914439;29;20206;-63
2022/01/23 10:05:55;;;;;;;13.07;11.13;;;2.70;99.90;;;;;;4929483;29;20210;-62
2022/01/23 10:08:28;;;;;;;14.48;10.95;;;2.70;99.90;;;;;;4925350;29;20229;-62
2022/01/23 10:11:00;;;;;;;18.48;13.40;;;2.70;99.90;;;;;;4924972;29;20238;-62
2022/01/23 10:13:32;;;;;;;13.18;11.80;;;2.70;99.90;;;;;;4918461;29;20206;-62
2022/01/23 10:16:05;;;;;;;16.17;12.18;;;2.70;99.90;;;;;;4922300;29;20202;-62
2022/01/23 10:18:37;;;;;;;14.98;11.73;;;2.70;99.90;;;;;;4919276;29;20205;-63
2022/01/23 10:21:08;;;;;;;13.75;12.00;;;2.70;99.90;;;;;;4922536;29;20195;-62
2022/01/23 10:23:39;;;;;;;15.32;11.90;;;2.60;99.90;;;;;;4924402;29;20206;-62
2022/01/23 10:26:10;;;;;;;12.30;11.00;;;2.70;99.90;;;;;;4927419;29;20226;-62
2022/01/23 10:28:43;;;;;;;13.55;11.73;;;2.60;99.90;;;;;;4917442;29;20203;-63
2022/01/23 10:31:14;;;;;;;17.95;11.63;;;2.60;99.90;;;;;;4925825;29;20210;-62
2022/01/23 10:33:47;;;;;;;12.13;10.88;;;2.60;99.90;;;;;;4922454;29;20206;-62
2022/01/23 10:36:21;;;;;;;14.85;11.25;;;2.50;99.90;;;;;;4927728;29;20191;-62
2022/01/23 10:38:57;;;;;;;12.40;11.10;;;2.60;99.90;;;;;;4921760;29;20214;-63
2022/01/23 10:41:45;;;;;;;15.45;12.43;;;2.60;99.90;;;;;;4928802;29;20663;-63
2022/01/23 10:50:01;;;;;;;12.57;11.23;;;2.50;99.90;;;;;;4912002;29;20310;-63
2022/01/23 10:52:34;;;;;;;16.33;11.77;;;2.40;99.90;;;;;;4925574;29;20234;-63
2022/01/23 10:55:07;;;;;;;17.25;13.43;;;2.30;99.90;;;;;;4917118;29;20195;-63
2022/01/23 10:57:40;;;;;;;17.38;11.45;;;2.30;99.90;;;;;;4928533;29;20194;-63
2022/01/23 11:00:23;;;;;;;13.88;11.90;;;2.30;99.90;;;;;;4927498;29;20202;-62
2022/01/23 11:02:55;;;;;;;15.05;12.07;;;2.20;99.90;;;;;;4928193;29;20231;-63
2022/01/23 11:05:33;;;;;;;15.43;12.07;;;2.30;99.90;;;;;;4926855;29;20206;-63
2022/01/23 11:08:19;;;;;;;14.45;12.45;;;2.40;99.90;;;;;;4922079;29;20222;-63
2022/01/23 11:11:00;;;;;;;15.70;12.73;;;2.30;99.90;;;;;;4925012;29;20202;-63
2022/01/23 11:19:35;;;;;;;15.57;12.40;;;2.40;99.90;;;;;;4910631;29;20210;-63
2022/01/23 11:22:08;;;;;;;18.15;13.40;;;2.40;99.90;;;;;;4926374;29;20223;-62
2022/01/23 11:24:42;;;;;;;19.58;13.52;;;2.50;99.90;;;;;;4917356;29;20246;-63
2022/01/23 11:27:16;;;;;;;15.02;13.05;;;2.50;99.90;;;;;;4927307;29;20215;-63
2022/01/23 11:30:00;;;;;;;18.67;13.52;;;2.40;99.90;;;;;;4926991;29;20210;-63
2022/01/23 11:32:37;;;;;;;18.02;13.10;;;2.40;99.90;;;;;;4926959;29;20212;-63
2022/01/23 11:35:11;;;;;;;15.35;13.45;;;2.40;99.90;;;;;;4920141;29;20207;-63
2022/01/23 11:37:47;;;;;;;13.82;12.32;;;2.40;99.90;;;;;;4919590;29;20198;-63
2022/01/23 11:40:41;;;;;;;15.85;12.50;;;2.30;99.90;;;;;;4921590;29;20205;-63
2022/01/23 11:54:40;;;;;;;15.57;12.85;;;2.30;99.90;;;;;;4924675;29;20273;-62
2022/01/23 11:57:40;;;;;;;16.63;13.63;;;2.20;99.90;;;;;;4926604;29;20219;-62
2022/01/23 12:00:18;;;;;;;17.65;13.68;;;2.20;99.90;;;;;;4924533;29;20206;-63
2022/01/23 12:03:17;;;;;;;14.60;12.20;;;2.20;99.90;;;;;;4925548;29;20230;-63
2022/01/23 12:05:50;;;;;;;14.95;12.48;;;2.20;99.90;;;;;;4919643;29;20210;-63
2022/01/23 12:08:34;;;;;;;15.60;12.65;;;2.20;99.90;;;;;;4925001;29;20609;-63
2022/01/23 12:17:18;;;;;;;22.52;14.32;;;2.30;99.90;;;;;;4917096;29;20204;-62
2022/01/23 12:19:55;;;;;;;15.57;13.20;;;2.20;99.90;;;;;;4926485;29;20194;-63
2022/01/23 12:22:47;;;;;;;23.15;16.42;;;2.10;99.90;;;;;;4923539;29;20227;-62
2022/01/23 12:25:21;;;;;;;19.55;15.57;;;2.10;99.90;;;;;;4913905;29;20218;-62
2022/01/23 12:28:13;;;;;;;21.27;15.48;;;2.10;99.90;;;;;;4920689;29;20210;-62
2022/01/23 12:30:45;;;;;;;19.60;14.68;;;2.20;99.90;;;;;;4924785;29;20222;-63
2022/01/23 12:33:28;;;;;;;18.02;15.10;;;2.20;99.90;;;;;;4924103;29;20254;-63
2022/01/23 12:36:10;;;;;;;26.45;19.77;;;2.10;99.90;;;;;;4926181;29;20209;-63
2022/01/23 12:38:46;;;;;;;22.70;15.95;;;2.20;99.90;;;;;;4921811;29;20210;-63
2022/01/23 12:41:23;;;;;;;26.50;18.95;;;2.30;99.90;;;;;;4917505;29;20586;-64
2022/01/23 12:43:57;;;;;;;27.08;18.77;;;2.20;99.90;;;;;;4911635;29;20217;-63
2022/01/23 12:46:38;;;;;;;28.00;18.55;;;2.20;99.90;;;;;;4917212;29;20601;-63
2022/01/23 12:49:23;;;;;;;26.83;18.08;;;2.30;99.90;;;;;;4923216;29;20302;-62
2022/01/23 12:52:49;;;;;;;31.67;19.48;;;2.20;99.90;;;;;;4924556;29;20203;-63
2022/01/23 12:55:22;;;;;;;32.80;19.05;;;2.20;99.90;;;;;;4911656;29;20312;-62
2022/01/23 12:57:53;;;;;;;91.93;23.00;;;2.30;99.90;;;;;;4921041;29;20245;-63
2022/01/23 13:00:29;;;;;;;72.50;23.23;;;2.30;99.90;;;;;;4920427;29;20212;-63
2022/01/23 13:03:05;;;;;;;55.13;18.17;;;2.30;99.90;;;;;;4921734;29;20254;-63
2022/01/23 13:05:36;;;;;;;116.70;26.65;;;2.30;99.90;;;;;;4925594;29;20215;-65
2022/01/23 13:08:23;;;;;;;143.75;26.83;;;2.30;99.90;;;;;;4925536;29;20560;-65
2022/01/23 13:11:23;;;;;;;160.93;29.35;;;2.40;99.90;;;;;;4921482;29;20203;-64
2022/01/23 13:14:01;;;;;;;74.22;22.40;;;2.50;99.90;;;;;;4917195;29;20217;-62
2022/01/23 13:16:38;;;;;;;134.23;27.55;;;2.40;99.90;;;;;;4920887;29;20207;-62
2022/01/23 13:30:32;;;;;;;99.95;19.67;;;2.40;99.90;;;;;;4915379;29;20226;-63
2022/01/23 13:33:10;;;;;;;89.25;17.98;;;2.50;99.90;;;;;;4925919;29;20507;-63
2022/01/23 13:35:42;;;;;;;109.05;20.02;;;2.50;99.90;;;;;;4923748;29;20199;-62
2022/01/23 13:38:18;;;;;;;160.57;22.95;;;2.40;99.90;;;;;;4921703;29;20237;-62
2022/01/23 13:40:58;;;;;;;80.25;18.73;;;2.50;99.90;;;;;;4921384;29;20251;-63
2022/01/23 13:52:10;;;;;;;69.43;17.83;;;2.40;99.90;;;;;;4902332;29;20217;-62
2022/01/23 13:58:07;;;;;;;166.43;28.75;;;2.50;99.90;;;;;;4922034;29;20209;-62
2022/01/23 14:00:33;;;;;;;1999.90;542.72;;;2.60;99.90;;;;;;4921096;29;20590;-62
2022/01/23 14:03:05;;;;;;;49.17;17.23;;;2.70;99.90;;;;;;4920320;29;20285;-63
2022/01/23 14:05:39;;;;;;;41.03;13.32;;;2.60;99.90;;;;;;4916491;29;20226;-62
2022/01/23 14:08:10;;;;;;;40.70;13.40;;;2.50;99.90;;;;;;4921787;29;20203;-63
2022/01/23 14:10:41;;;;;;;74.05;16.92;;;2.50;99.90;;;;;;4924778;29;20266;-62
2022/01/23 14:13:15;;;;;;;87.55;14.48;;;2.50;99.90;;;;;;4918961;29;20215;-62
2022/01/23 14:15:55;;;;;;;128.40;18.80;;;2.50;99.90;;;;;;4920693;29;20198;-62
2022/01/23 14:18:28;;;;;;;76.50;15.32;;;2.40;99.90;;;;;;4917989;29;20283;-62
2022/01/23 14:21:00;;;;;;;40.33;13.70;;;2.30;99.90;;;;;;4924415;29;20214;-62
2022/01/23 14:23:33;;;;;;;79.40;15.38;;;2.40;99.90;;;;;;4922475;29;20226;-62
2022/01/23 14:26:11;;;;;;;57.10;14.48;;;2.40;99.90;;;;;;4923213;29;20269;-62
2022/01/23 14:28:45;;;;;;;101.32;16.15;;;2.40;99.90;;;;;;4912960;29;20202;-62
2022/01/23 14:31:23;;;;;;;45.03;12.88;;;2.50;99.90;;;;;;4925484;29;20195;-62
2022/01/23 14:33:58;;;;;;;115.63;17.30;;;2.50;99.90;;;;;;4922123;29;20287;-62
2022/01/23 14:36:34;;;;;;;55.03;13.90;;;2.40;99.90;;;;;;4923205;29;20228;-62
2022/01/23 14:39:09;;;;;;;45.13;12.88;;;2.40;99.90;;;;;;4917735;29;20212;-62
2022/01/23 14:41:41;;;;;;;64.18;13.95;;;2.40;99.90;;;;;;4917693;29;20270;-62
2022/01/23 14:44:17;;;;;;;124.55;17.73;;;2.50;99.90;;;;;;4912377;29;20233;-62
2022/01/23 14:46:51;;;;;;;108.55;19.58;;;2.50;99.90;;;;;;4924125;29;20274;-62
2022/01/23 14:49:26;;;;;;;30.30;12.40;;;2.60;99.90;;;;;;4921494;29;20234;-63
2022/01/23 14:51:59;;;;;;;41.80;13.82;;;2.60;99.90;;;;;;4926366;29;20192;-63
2022/01/23 14:54:33;;;;;;;43.30;11.98;;;2.60;99.90;;;;;;4925812;29;20210;-63
2022/01/23 14:57:06;;;;;;;55.67;14.30;;;2.60;99.90;;;;;;4926016;29;20310;-62
2022/01/23 14:59:38;;;;;;;130.27;16.00;;;2.60;99.90;;;;;;4918599;29;20242;-63
2022/01/23 15:02:13;;;;;;;103.22;16.30;;;2.70;99.90;;;;;;4927331;29;20352;-63
2022/01/23 15:04:48;;;;;;;48.40;12.63;;;2.70;99.90;;;;;;4925620;29;20218;-63
2022/01/23 15:07:19;;;;;;;73.10;14.25;;;2.70;99.90;;;;;;4926567;29;20213;-63
2022/01/23 15:09:51;;;;;;;59.85;13.52;;;2.70;99.90;;;;;;4924771;29;20314;-62
2022/01/23 15:12:22;;;;;;;58.78;12.55;;;2.70;99.90;;;;;;4921425;29;20207;-62
2022/01/23 15:14:54;;;;;;;25.42;11.75;;;2.70;99.90;;;;;;4921948;29;20215;-63
2022/01/23 15:17:26;;;;;;;44.38;12.25;;;2.60;99.90;;;;;;4925401;29;20224;-63
2022/01/23 15:19:57;;;;;;;30.35;11.27;;;2.70;99.90;;;;;;4920989;29;20209;-63
2022/01/23 15:22:29;;;;;;;49.92;13.68;;;2.70;99.90;;;;;;4924503;29;20230;-63
2022/01/23 15:25:00;;;;;;;53.40;12.40;;;2.70;99.90;;;;;;4925883;29;20234;-63
2022/01/23 15:27:31;;;;;;;59.67;14.02;;;2.70;99.90;;;;;;4928160;29;20203;-63
2022/01/23 15:30:02;;;;;;;29.80;10.55;;;2.70;99.90;;;;;;4921181;29;20218;-63
2022/01/23 15:32:34;;;;;;;463.58;73.05;;;2.70;99.90;;;;;;4920420;29;20270;-63
2022/01/23 15:35:06;;;;;;;273.92;47.90;;;2.90;99.90;;;;;;4922465;29;20209;-63
2022/01/23 15:37:38;;;;;;;84.40;14.48;;;2.90;99.90;;;;;;4915826;29;20210;-63
2022/01/23 15:40:11;;;;;;;88.75;15.77;;;3.00;99.90;;;;;;4926871;29;20241;-63
2022/01/23 15:42:45;;;;;;;32.78;10.77;;;2.90;99.90;;;;;;4923827;29;20207;-62
2022/01/23 15:45:17;;;;;;;31.98;10.32;;;2.80;99.90;;;;;;4927342;29;20237;-62
2022/01/23 15:47:49;;;;;;;49.72;10.70;;;2.70;99.90;;;;;;4924841;29;20210;-63
2022/01/23 15:50:21;;;;;;;22.23;10.10;;;2.80;99.90;;;;;;4923252;29;20311;-63
2022/01/23 15:52:52;;;;;;;71.32;14.30;;;2.70;99.90;;;;;;4924767;29;20191;-62
2022/01/23 15:55:24;;;;;;;251.07;37.00;;;2.70;99.90;;;;;;4918312;29;20207;-63
2022/01/23 15:57:55;;;;;;;44.85;13.43;;;2.70;99.90;;;;;;4926753;29;20219;-62
2022/01/23 16:00:27;;;;;;;727.72;118.03;;;2.80;99.90;;;;;;4914138;29;20209;-63
2022/01/23 16:02:59;;;;;;;184.63;34.25;;;3.00;99.90;;;;;;4914455;29;20223;-63